createdAt,value
2022-08-30T00:00:02.406Z,18.90
2022-08-30T00:02:36.126Z,18.90
2022-08-30T00:05:05.234Z,18.70
2022-08-30T00:07:33.425Z,19.00
2022-08-30T00:10:01.895Z,19.20
2022-08-30T00:12:31.924Z,19.00
2022-08-30T00:15:00.537Z,19.00
2022-08-30T00:17:29.021Z,19.00
2022-08-30T00:19:59.182Z,19.00
2022-08-30T00:22:27.449Z,19.00
2022-08-30T00:24:55.760Z,19.00
2022-08-30T00:27:24.043Z,19.00
2022-08-30T00:29:52.313Z,18.90
2022-08-30T00:32:21.498Z,18.90
2022-08-30T00:34:50.062Z,18.70
2022-08-30T00:37:20.242Z,19.20
2022-08-30T00:39:49.015Z,18.90
2022-08-30T00:42:18.626Z,18.90
2022-08-30T00:44:47.503Z,19.00
2022-08-30T00:47:16.044Z,19.50
2022-08-30T00:49:49.045Z,18.90
2022-08-30T00:52:21.802Z,18.90
2022-08-30T00:54:52.546Z,18.90
2022-08-30T00:57:21.595Z,18.90
2022-08-30T00:59:51.639Z,18.90
2022-08-30T01:02:23.833Z,18.90
2022-08-30T01:04:53.061Z,18.90
2022-08-30T01:07:22.816Z,18.90
2022-08-30T01:09:51.301Z,18.90
2022-08-30T01:12:19.702Z,18.90
2022-08-30T01:14:48.559Z,18.80
2022-08-30T01:17:17.414Z,18.80
2022-08-30T01:19:53.873Z,18.80
2022-08-30T01:22:29.792Z,18.80
2022-08-30T01:25:01.567Z,18.80
2022-08-30T01:27:32.225Z,18.80
2022-08-30T01:30:00.836Z,18.80
2022-08-30T01:32:30.465Z,18.80
2022-08-30T01:34:59.520Z,18.80
2022-08-30T01:37:31.891Z,18.80
2022-08-30T01:40:02.002Z,18.80
2022-08-30T01:42:30.434Z,18.80
2022-08-30T01:44:58.753Z,18.80
2022-08-30T01:47:27.502Z,18.80
2022-08-30T01:49:56.091Z,18.80
2022-08-30T01:52:25.021Z,18.80
2022-08-30T01:54:54.368Z,18.70
2022-08-30T01:57:26.910Z,18.70
2022-08-30T01:59:55.451Z,18.80
2022-08-30T02:02:27.051Z,18.80
2022-08-30T02:04:55.424Z,18.80
2022-08-30T02:07:24.068Z,18.80
2022-08-30T02:09:53.033Z,18.80
2022-08-30T02:12:23.057Z,18.70
2022-08-30T02:14:51.383Z,18.70
2022-08-30T02:17:20.116Z,18.70
2022-08-30T02:19:48.441Z,18.70
2022-08-30T02:22:17.202Z,18.70
2022-08-30T02:24:45.553Z,18.70
2022-08-30T02:27:13.862Z,18.70
2022-08-30T02:29:43.672Z,18.70
2022-08-30T02:32:12.059Z,18.70
2022-08-30T02:34:40.262Z,18.70
2022-08-30T02:37:09.115Z,18.70
2022-08-30T02:39:37.750Z,18.70
2022-08-30T02:42:06.737Z,18.60
2022-08-30T02:44:34.994Z,18.60
2022-08-30T02:47:05.121Z,18.70
2022-08-30T02:49:34.261Z,18.70
2022-08-30T02:52:04.235Z,18.60
2022-08-30T02:54:33.528Z,18.60
2022-08-30T02:57:05.007Z,18.60
2022-08-30T02:59:33.732Z,18.60
2022-08-30T03:02:02.023Z,20.40
2022-08-30T03:04:31.804Z,18.60
2022-08-30T03:07:00.137Z,18.60
2022-08-30T03:09:28.650Z,18.60
2022-08-30T03:11:57.071Z,18.60
2022-08-30T03:14:25.492Z,18.60
2022-08-30T03:16:54.175Z,18.60
2022-08-30T03:19:22.943Z,18.60
2022-08-30T03:21:53.255Z,18.60
2022-08-30T03:24:22.023Z,18.60
2022-08-30T03:26:50.246Z,18.60
2022-08-30T03:29:18.561Z,18.60
2022-08-30T03:31:53.149Z,18.60
2022-08-30T03:34:22.804Z,18.60
2022-08-30T03:36:53.200Z,18.60
2022-08-30T03:39:22.665Z,18.60
2022-08-30T03:41:50.914Z,18.60
2022-08-30T03:44:20.322Z,18.60
2022-08-30T03:46:50.108Z,18.60
2022-08-30T03:49:18.537Z,18.60
2022-08-30T03:51:47.545Z,18.60
2022-08-30T03:54:17.300Z,18.60
2022-08-30T03:56:45.826Z,18.60
2022-08-30T03:59:14.402Z,18.50
2022-08-30T04:01:43.137Z,18.50
2022-08-30T04:04:12.212Z,18.50
2022-08-30T04:06:40.529Z,18.50
2022-08-30T04:09:08.822Z,18.50
2022-08-30T04:11:38.613Z,18.50
2022-08-30T04:14:06.949Z,18.50
2022-08-30T04:16:35.397Z,18.60
2022-08-30T04:19:04.152Z,18.50
2022-08-30T04:21:32.766Z,18.50
2022-08-30T04:24:03.796Z,18.50
2022-08-30T04:26:32.066Z,18.50
2022-08-30T04:29:01.697Z,18.50
2022-08-30T04:31:30.371Z,18.50
2022-08-30T04:33:58.801Z,18.50
2022-08-30T04:38:55.747Z,18.50
2022-08-30T04:41:24.606Z,18.50
2022-08-30T04:43:53.082Z,18.50
2022-08-30T04:46:22.822Z,18.40
2022-08-30T04:48:51.299Z,18.50
2022-08-30T04:51:20.164Z,18.40
2022-08-30T04:53:48.439Z,18.70
2022-08-30T04:56:19.657Z,18.40
2022-08-30T04:58:49.232Z,18.40
2022-08-30T05:01:20.522Z,18.50
2022-08-30T05:03:54.809Z,18.50
2022-08-30T05:06:24.564Z,18.50
2022-08-30T05:08:53.893Z,18.50
2022-08-30T05:11:23.102Z,18.50
2022-08-30T05:13:51.684Z,18.50
2022-08-30T05:16:20.227Z,18.50
2022-08-30T05:18:50.746Z,18.50
2022-08-30T05:21:22.862Z,18.40
2022-08-30T05:23:53.872Z,18.50
2022-08-30T05:26:25.120Z,18.40
2022-08-30T05:28:53.851Z,18.50
2022-08-30T05:31:25.571Z,18.50
2022-08-30T05:33:55.393Z,18.50
2022-08-30T05:36:28.264Z,18.50
2022-08-30T05:38:57.010Z,18.50
2022-08-30T05:41:27.244Z,18.50
2022-08-30T05:43:56.558Z,18.50
2022-08-30T05:46:25.670Z,18.60
2022-08-30T05:48:54.172Z,18.50
2022-08-30T05:51:25.643Z,18.50
2022-08-30T05:53:54.971Z,18.50
2022-08-30T05:56:26.019Z,18.60
2022-08-30T05:58:55.032Z,18.60
2022-08-30T06:01:25.344Z,18.50
2022-08-30T06:03:54.638Z,18.60
2022-08-30T06:06:24.531Z,18.60
2022-08-30T06:08:53.563Z,18.60
2022-08-30T06:11:23.363Z,18.60
2022-08-30T06:13:53.714Z,18.60
2022-08-30T06:16:24.537Z,18.60
2022-08-30T06:18:53.115Z,18.90
2022-08-30T06:21:23.612Z,18.70
2022-08-30T06:23:54.525Z,18.70
2022-08-30T06:26:23.643Z,18.70
2022-08-30T06:28:52.320Z,18.70
2022-08-30T06:31:22.103Z,18.70
2022-08-30T06:33:51.018Z,19.00
2022-08-30T06:36:21.229Z,18.70
2022-08-30T06:38:53.205Z,18.70
2022-08-30T06:41:23.837Z,18.70
2022-08-30T06:43:52.427Z,18.70
2022-08-30T06:46:22.902Z,18.70
2022-08-30T06:48:51.801Z,18.90
2022-08-30T06:51:21.408Z,18.80
2022-08-30T06:53:50.260Z,18.70
2022-08-30T06:56:22.198Z,18.90
2022-08-30T06:58:51.601Z,18.80
2022-08-30T07:01:23.119Z,18.80
2022-08-30T07:03:51.935Z,18.80
2022-08-30T07:06:20.964Z,19.00
2022-08-30T07:08:50.015Z,18.90
2022-08-30T07:11:32.106Z,18.90
2022-08-30T07:14:00.995Z,18.90
2022-08-30T07:18:58.713Z,19.00
2022-08-30T07:21:29.231Z,19.10
2022-08-30T07:23:58.778Z,18.90
2022-08-30T07:26:31.567Z,19.00
2022-08-30T07:29:00.675Z,19.00
2022-08-30T07:31:29.852Z,18.90
2022-08-30T07:33:58.406Z,19.10
2022-08-30T07:36:26.719Z,18.80
2022-08-30T07:38:55.613Z,19.00
2022-08-30T07:41:26.830Z,19.10
2022-08-30T07:43:57.880Z,19.00
2022-08-30T07:46:27.499Z,19.00
2022-08-30T07:48:56.216Z,19.00
2022-08-30T07:51:28.113Z,19.00
2022-08-30T07:53:57.972Z,19.00
2022-08-30T07:56:26.503Z,19.00
2022-08-30T07:58:56.155Z,19.00
2022-08-30T08:01:25.365Z,19.00
2022-08-30T08:03:53.861Z,19.00
2022-08-30T08:06:24.304Z,19.00
2022-08-30T08:08:54.391Z,19.00
2022-08-30T08:11:28.332Z,18.90
2022-08-30T08:13:58.987Z,18.90
2022-08-30T08:16:32.614Z,18.90
2022-08-30T08:19:01.070Z,18.90
2022-08-30T08:21:29.643Z,18.90
2022-08-30T08:23:58.065Z,18.90
2022-08-30T08:26:27.008Z,18.90
2022-08-30T08:28:55.515Z,18.90
2022-08-30T08:31:29.874Z,18.90
2022-08-30T08:34:03.407Z,18.90
2022-08-30T08:36:32.617Z,18.90
2022-08-30T08:39:01.064Z,18.90
2022-08-30T08:41:41.952Z,18.90
2022-08-30T08:44:16.125Z,18.90
2022-08-30T08:46:54.098Z,19.00
2022-08-30T08:49:22.391Z,19.00
2022-08-30T08:52:08.698Z,19.00
2022-08-30T08:54:44.111Z,19.10
2022-08-30T08:57:15.985Z,19.00
2022-08-30T08:59:45.585Z,19.00
2022-08-30T09:02:24.135Z,19.00
2022-08-30T09:04:55.932Z,19.00
2022-08-30T09:07:27.878Z,19.00
2022-08-30T09:09:58.120Z,19.00
2022-08-30T09:12:26.396Z,19.00
2022-08-30T09:14:56.974Z,19.00
2022-08-30T09:17:29.687Z,19.00
2022-08-30T09:20:02.603Z,19.00
2022-08-30T09:22:36.626Z,19.00
2022-08-30T09:25:08.419Z,19.00
2022-08-30T09:27:37.375Z,19.00
2022-08-30T09:30:14.207Z,19.70
2022-08-30T09:32:53.094Z,19.00
2022-08-30T09:35:27.604Z,19.10
2022-08-30T09:37:57.863Z,19.00
2022-08-30T09:40:33.728Z,19.00
2022-08-30T09:43:06.212Z,19.00
2022-08-30T09:45:37.177Z,19.00
2022-08-30T09:48:33.028Z,19.00
2022-08-30T09:51:23.101Z,19.00
2022-08-30T09:54:17.333Z,19.00
2022-08-30T09:57:01.035Z,19.00
2022-08-30T09:59:42.338Z,19.00
2022-08-30T10:02:34.502Z,19.00
2022-08-30T10:05:09.089Z,19.00
2022-08-30T10:07:47.617Z,19.00
2022-08-30T10:10:20.624Z,19.00
2022-08-30T10:12:58.644Z,19.00
2022-08-30T10:15:30.995Z,19.00
2022-08-30T10:18:08.149Z,19.00
2022-08-30T10:20:44.248Z,19.10
2022-08-30T10:23:17.991Z,18.90
2022-08-30T10:25:51.017Z,19.10
2022-08-30T10:28:28.360Z,19.00
2022-08-30T10:31:02.586Z,19.00
2022-08-30T10:33:36.626Z,19.00
2022-08-30T10:36:11.752Z,19.10
2022-08-30T10:38:42.252Z,19.10
2022-08-30T10:41:21.295Z,19.00
2022-08-30T10:43:57.272Z,19.10
2022-08-30T10:46:32.620Z,19.80
2022-08-30T10:49:03.891Z,19.10
2022-08-30T10:51:37.784Z,19.10
2022-08-30T10:54:18.521Z,19.00
2022-08-30T10:56:51.451Z,18.90
2022-08-30T10:59:20.721Z,16.80
2022-08-30T11:02:21.407Z,18.80
2022-08-30T11:07:49.417Z,19.20
2022-08-30T11:10:39.392Z,19.10
2022-08-30T11:13:12.345Z,19.10
2022-08-30T11:15:56.475Z,19.10
2022-08-30T11:18:27.426Z,19.10
2022-08-30T11:21:17.009Z,19.10
2022-08-30T11:24:01.736Z,19.10
2022-08-30T11:26:57.518Z,19.00
2022-08-30T11:29:32.744Z,19.10
2022-08-30T11:32:21.008Z,19.10
2022-08-30T11:34:57.489Z,19.10
2022-08-30T11:37:38.668Z,19.00
2022-08-30T11:40:27.727Z,19.10
2022-08-30T11:42:57.539Z,18.90
2022-08-30T11:45:52.552Z,19.10
2022-08-30T11:48:53.708Z,19.20
2022-08-30T11:52:08.397Z,19.10
2022-08-30T11:54:53.109Z,19.00
2022-08-30T11:57:31.257Z,19.10
2022-08-30T12:00:07.954Z,19.10
2022-08-30T12:02:55.259Z,19.10
2022-08-30T12:05:53.838Z,19.10
2022-08-30T12:08:47.670Z,19.10
2022-08-30T12:12:02.470Z,19.00
2022-08-30T12:14:44.592Z,18.80
2022-08-30T12:17:48.550Z,19.30
2022-08-30T12:20:28.411Z,19.10
2022-08-30T12:22:58.886Z,19.10
2022-08-30T12:25:31.125Z,19.10
2022-08-30T12:28:14.964Z,19.10
2022-08-30T12:30:46.829Z,19.10
2022-08-30T12:33:29.604Z,19.30
2022-08-30T12:35:59.632Z,19.10
2022-08-30T12:38:29.823Z,19.00
2022-08-30T12:41:01.964Z,19.10
2022-08-30T12:43:38.947Z,19.10
2022-08-30T12:46:15.170Z,19.10
2022-08-30T12:48:44.982Z,19.10
2022-08-30T12:51:29.248Z,19.20
2022-08-30T12:54:07.041Z,19.10
2022-08-30T12:56:54.667Z,19.10
2022-08-30T12:59:54.181Z,19.10
2022-08-30T13:02:30.086Z,19.10
2022-08-30T13:07:32.769Z,19.10
2022-08-30T13:10:19.545Z,19.60
2022-08-30T13:13:06.373Z,19.20
2022-08-30T13:15:42.027Z,19.10
2022-08-30T13:18:29.952Z,19.10
2022-08-30T13:21:22.378Z,19.10
2022-08-30T13:23:51.797Z,19.00
2022-08-30T13:26:23.050Z,19.00
2022-08-30T13:28:52.259Z,19.10
2022-08-30T13:31:22.452Z,19.10
2022-08-30T13:33:53.708Z,19.30
2022-08-30T13:36:24.651Z,19.10
2022-08-30T13:38:53.349Z,19.10
2022-08-30T13:41:21.854Z,19.10
2022-08-30T13:46:42.673Z,19.10
2022-08-30T13:52:20.343Z,20.50
2022-08-30T13:54:50.183Z,19.10
2022-08-30T14:00:14.473Z,19.10
2022-08-30T14:02:50.135Z,19.10
2022-08-30T14:05:47.503Z,19.10
2022-08-30T14:11:03.802Z,19.10
2022-08-30T14:13:33.133Z,19.00
2022-08-30T14:18:53.691Z,19.10
2022-08-30T14:21:24.751Z,19.10
2022-08-30T14:23:53.625Z,17.70
2022-08-30T14:26:24.370Z,19.10
2022-08-30T14:28:54.980Z,19.10
2022-08-30T14:31:23.307Z,19.10
2022-08-30T14:33:51.923Z,19.10
2022-08-30T14:36:20.706Z,19.10
2022-08-30T14:38:50.539Z,19.10
2022-08-30T14:41:20.138Z,19.10
2022-08-30T14:43:48.530Z,19.10
2022-08-30T14:48:45.462Z,19.00
2022-08-30T14:51:16.985Z,19.10
2022-08-30T14:53:45.866Z,19.00
2022-08-30T14:56:19.643Z,19.10
2022-08-30T14:58:50.060Z,19.10
2022-08-30T15:01:19.811Z,19.10
2022-08-30T15:03:48.202Z,18.90
2022-08-30T15:06:16.907Z,19.10
2022-08-30T15:08:47.637Z,19.10
2022-08-30T15:11:20.075Z,19.10
2022-08-30T15:13:48.755Z,19.10
2022-08-30T15:16:20.480Z,19.10
2022-08-30T15:18:49.092Z,19.10
2022-08-30T15:21:24.035Z,21.60
2022-08-30T15:23:52.980Z,19.20
2022-08-30T15:26:22.764Z,19.10
2022-08-30T15:28:51.395Z,19.10
2022-08-30T15:31:21.071Z,19.10
2022-08-30T15:33:51.407Z,19.20
2022-08-30T15:36:19.747Z,19.10
2022-08-30T15:38:48.233Z,19.10
2022-08-30T15:41:16.867Z,19.10
2022-08-30T15:43:46.526Z,19.00
2022-08-30T15:46:22.526Z,19.10
2022-08-30T15:48:52.984Z,19.10
2022-08-30T15:51:22.048Z,19.10
2022-08-30T15:53:52.632Z,19.10
2022-08-30T15:56:21.442Z,19.10
2022-08-30T15:58:53.062Z,19.10
2022-08-30T16:01:30.325Z,19.10
2022-08-30T16:04:03.936Z,19.10
2022-08-30T16:06:37.234Z,19.10
2022-08-30T16:09:06.859Z,19.10
2022-08-30T16:11:35.857Z,19.10
2022-08-30T16:14:06.930Z,19.10
2022-08-30T16:16:37.604Z,19.10
2022-08-30T16:19:06.223Z,19.10
2022-08-30T16:21:36.886Z,19.10
2022-08-30T16:24:07.337Z,19.30
2022-08-30T16:26:39.369Z,19.10
2022-08-30T16:29:09.521Z,19.10
2022-08-30T16:31:38.422Z,19.10
2022-08-30T16:34:07.837Z,19.10
2022-08-30T16:36:36.880Z,19.10
2022-08-30T16:39:08.389Z,19.10
2022-08-30T16:41:37.968Z,19.10
2022-08-30T16:44:08.493Z,19.10
2022-08-30T16:46:37.743Z,19.10
2022-08-30T16:49:06.755Z,19.10
2022-08-30T16:51:38.456Z,19.10
2022-08-30T16:54:08.295Z,19.10
2022-08-30T16:56:38.535Z,19.10
2022-08-30T16:59:11.355Z,19.10
2022-08-30T17:01:42.314Z,19.10
2022-08-30T17:04:12.982Z,19.10
2022-08-30T17:06:44.131Z,19.10
2022-08-30T17:09:12.433Z,19.10
2022-08-30T17:11:41.561Z,19.10
2022-08-30T17:14:11.498Z,19.10
2022-08-30T17:16:41.419Z,19.10
2022-08-30T17:19:11.676Z,19.10
2022-08-30T17:21:39.981Z,19.10
2022-08-30T17:24:08.502Z,19.10
2022-08-30T17:26:38.411Z,19.30
2022-08-30T17:29:07.743Z,19.10
2022-08-30T17:31:38.880Z,19.10
2022-08-30T17:34:07.489Z,19.10
2022-08-30T17:36:37.227Z,19.10
2022-08-30T17:39:11.089Z,19.10
2022-08-30T17:41:45.194Z,19.10
2022-08-30T17:44:19.568Z,19.10
2022-08-30T17:46:49.345Z,19.00
2022-08-30T17:49:17.755Z,19.20
2022-08-30T17:51:47.682Z,19.10
2022-08-30T17:54:18.020Z,19.30
2022-08-30T17:56:46.375Z,19.30
2022-08-30T17:59:16.128Z,19.40
2022-08-30T18:01:45.486Z,19.40
2022-08-30T18:04:19.659Z,19.50
2022-08-30T18:06:49.363Z,19.50
2022-08-30T18:09:18.020Z,19.40
2022-08-30T18:11:46.382Z,19.50
2022-08-30T18:14:17.604Z,19.60
2022-08-30T18:16:54.268Z,19.60
2022-08-30T18:19:36.321Z,19.60
2022-08-30T18:22:14.260Z,19.60
2022-08-30T18:24:42.756Z,19.60
2022-08-30T18:27:11.091Z,19.60
2022-08-30T18:29:42.084Z,19.60
2022-08-30T18:32:11.616Z,19.60
2022-08-30T18:34:42.834Z,19.50
2022-08-30T18:37:12.470Z,20.40
2022-08-30T18:39:41.324Z,19.40
2022-08-30T18:42:10.417Z,19.40
2022-08-30T18:44:39.899Z,19.30
2022-08-30T18:47:09.451Z,19.30
2022-08-30T18:49:38.420Z,19.30
2022-08-30T18:52:10.002Z,19.30
2022-08-30T18:54:40.471Z,19.30
2022-08-30T18:57:10.229Z,19.30
2022-08-30T18:59:38.940Z,19.30
2022-08-30T19:02:12.653Z,19.30
2022-08-30T19:04:42.775Z,19.30
2022-08-30T19:07:14.829Z,19.30
2022-08-30T19:09:43.732Z,19.30
2022-08-30T19:12:14.489Z,19.30
2022-08-30T19:14:43.090Z,19.50
2022-08-30T19:19:48.556Z,19.30
2022-08-30T19:22:21.983Z,19.30
2022-08-30T19:24:51.301Z,19.30
2022-08-30T19:27:37.319Z,19.30
2022-08-30T19:30:09.166Z,19.30
2022-08-30T19:32:37.647Z,19.40
2022-08-30T19:35:06.671Z,19.40
2022-08-30T19:37:36.738Z,19.40
2022-08-30T19:40:08.172Z,19.40
2022-08-30T19:42:41.801Z,19.40
2022-08-30T19:45:18.208Z,19.50
2022-08-30T19:47:47.145Z,19.40
2022-08-30T19:52:52.643Z,19.80
2022-08-30T19:55:37.078Z,19.80
2022-08-30T19:58:05.625Z,20.00
2022-08-30T20:00:33.838Z,20.10
2022-08-30T20:03:05.789Z,20.00
2022-08-30T20:05:34.945Z,20.00
2022-08-30T20:08:05.678Z,19.90
2022-08-30T20:15:33.547Z,19.80
2022-08-30T20:20:49.837Z,20.00
2022-08-30T20:23:22.740Z,19.80
2022-08-30T20:25:51.924Z,19.70
2022-08-30T20:30:49.315Z,19.60
2022-08-30T20:33:17.679Z,19.60
2022-08-30T20:35:49.350Z,19.50
2022-08-30T20:38:21.941Z,19.50
2022-08-30T20:40:52.434Z,19.40
2022-08-30T21:56:13.459Z,19.30
2022-08-30T21:58:47.567Z,19.30
2022-08-30T22:01:18.907Z,20.30
2022-08-30T22:03:47.402Z,19.50
2022-08-30T22:06:16.480Z,21.40
2022-08-30T22:08:46.591Z,19.30
2022-08-30T22:11:19.409Z,19.30
2022-08-30T22:13:50.688Z,19.30
2022-08-30T22:16:21.747Z,19.40
2022-08-30T22:18:50.144Z,19.30
2022-08-30T22:21:22.284Z,19.30
2022-08-30T22:23:50.789Z,19.30
2022-08-30T22:26:20.661Z,19.30
2022-08-30T22:28:50.389Z,19.30
2022-08-30T22:31:19.931Z,19.30
2022-08-30T22:33:49.128Z,19.20
2022-08-30T22:36:20.984Z,19.30
2022-08-30T22:38:52.549Z,19.30
2022-08-30T22:41:25.453Z,19.30
2022-08-30T22:43:55.547Z,19.20
2022-08-30T22:46:29.608Z,19.30
2022-08-30T22:49:02.895Z,19.30
2022-08-30T22:51:31.169Z,19.30
2022-08-30T22:54:00.857Z,19.30
2022-08-30T22:56:30.787Z,19.30
2022-08-30T22:59:00.547Z,19.30
2022-08-30T23:01:31.847Z,19.30
2022-08-30T23:04:01.393Z,19.30
2022-08-30T23:06:30.606Z,19.10
2022-08-30T23:08:59.366Z,19.20
2022-08-30T23:11:27.947Z,19.20
2022-08-30T23:14:00.272Z,19.30
2022-08-30T23:16:28.688Z,19.20
2022-08-30T23:18:57.106Z,19.20
2022-08-30T23:21:28.444Z,19.20
2022-08-30T23:24:15.505Z,19.20
2022-08-30T23:27:03.345Z,19.20
2022-08-30T23:29:51.712Z,19.20
2022-08-30T23:32:38.226Z,19.20
2022-08-30T23:35:29.523Z,19.20
2022-08-30T23:38:16.327Z,19.20
2022-08-30T23:41:02.216Z,19.30
2022-08-30T23:43:48.097Z,19.20
2022-08-30T23:46:35.416Z,19.20
2022-08-30T23:49:21.330Z,19.10
2022-08-30T23:52:07.620Z,19.10
2022-08-30T23:54:55.763Z,19.10
2022-08-30T23:57:44.103Z,19.10
